createdAt,value
2018-03-27T10:22:12.333Z,340
2018-03-27T10:23:20.425Z,365
2018-03-27T10:24:28.554Z,385
2018-03-27T10:25:36.569Z,395
2018-03-27T10:26:44.598Z,410
2018-03-27T10:27:52.656Z,410
2018-03-27T10:29:00.800Z,400
2018-03-27T10:30:08.866Z,395
2018-03-27T10:31:16.856Z,395
2018-03-27T10:32:24.967Z,375
2018-03-27T10:33:33.338Z,360
2018-03-27T10:34:41.065Z,350
2018-03-27T10:35:49.166Z,340
2018-03-27T10:38:05.306Z,330
2018-03-27T10:39:13.323Z,330
2018-03-27T10:40:21.483Z,335
2018-03-27T10:41:29.496Z,340
2018-03-27T10:42:37.532Z,335
2018-03-27T10:43:45.619Z,325
2018-03-27T10:44:53.679Z,330
2018-03-27T10:46:01.722Z,315
2018-03-27T10:47:09.871Z,310
2018-03-27T10:48:17.873Z,310
2018-03-27T10:49:25.912Z,315
2018-03-27T10:50:34.080Z,305
2018-03-27T10:51:42.110Z,305
2018-03-27T10:52:50.119Z,310
2018-03-27T10:53:58.299Z,310
2018-03-27T10:55:06.381Z,300
2018-03-27T10:56:14.361Z,305
2018-03-27T10:57:22.375Z,335
2018-03-27T10:58:30.492Z,350
2018-03-27T10:59:38.869Z,360
2018-03-27T11:00:46.633Z,355
2018-03-27T11:01:54.647Z,345
2018-03-27T11:03:02.766Z,315
2018-03-27T11:04:10.824Z,290
2018-03-27T11:05:18.858Z,275
2018-03-27T11:06:26.901Z,290
2018-03-27T11:07:35.003Z,320
2018-03-27T11:08:43.046Z,335
2018-03-27T11:09:51.116Z,365
2018-03-27T11:10:59.205Z,390
2018-03-27T11:12:07.278Z,360
2018-03-27T11:13:15.314Z,340
2018-03-27T11:14:23.449Z,330
2018-03-27T11:15:31.507Z,320
2018-03-27T11:16:39.489Z,340
2018-03-27T11:17:47.629Z,350
2018-03-27T11:18:55.620Z,345
2018-03-27T11:20:03.760Z,370
2018-03-27T11:21:11.787Z,400
2018-03-27T11:22:19.867Z,375
2018-03-27T11:23:27.991Z,305
2018-03-27T11:24:36.107Z,285
2018-03-27T11:25:44.091Z,310
2018-03-27T11:26:52.100Z,365
2018-03-27T11:28:00.222Z,400
2018-03-27T11:29:08.244Z,435
2018-03-27T11:30:16.289Z,405
2018-03-27T11:31:24.347Z,380
2018-03-27T11:32:32.456Z,445
2018-03-27T11:33:40.542Z,440
2018-03-27T11:34:48.561Z,425
2018-03-27T11:35:56.711Z,435
2018-03-27T11:37:04.710Z,440
2018-03-27T11:38:12.808Z,415
2018-03-27T11:39:20.811Z,365
2018-03-27T11:40:28.883Z,350
2018-03-27T11:41:37.022Z,370
2018-03-27T11:42:44.994Z,450
2018-03-27T11:43:53.129Z,490
2018-03-27T11:45:01.188Z,480
2018-03-27T11:46:09.240Z,540
2018-03-27T11:47:17.266Z,550
2018-03-27T11:48:25.401Z,495
2018-03-27T11:49:33.465Z,465
2018-03-27T11:50:41.473Z,495
2018-03-27T11:51:49.534Z,525
2018-03-27T11:52:57.628Z,520
2018-03-27T11:54:05.714Z,495
2018-03-27T11:55:13.768Z,485
2018-03-27T11:56:21.798Z,450
2018-03-27T11:57:29.877Z,415
2018-03-27T11:58:37.972Z,395
2018-03-27T11:59:46.007Z,365
2018-03-27T12:00:54.060Z,360
2018-03-27T12:02:02.241Z,370
2018-03-27T12:03:10.269Z,400
2018-03-27T12:04:18.299Z,415
2018-03-27T12:05:26.397Z,405
2018-03-27T12:06:34.436Z,365
2018-03-27T12:07:42.459Z,370
2018-03-27T12:08:50.579Z,385
2018-03-27T12:09:58.590Z,350
2018-03-27T12:11:06.660Z,330
2018-03-27T12:12:14.767Z,330
2018-03-27T12:13:22.795Z,310
2018-03-27T12:14:30.912Z,315
2018-03-27T12:15:38.919Z,310
2018-03-27T12:16:47.049Z,325
2018-03-27T12:17:55.111Z,370
2018-03-27T12:19:03.167Z,445
2018-03-27T12:20:11.214Z,530
2018-03-27T12:21:19.325Z,605
2018-03-27T12:22:27.385Z,555
2018-03-27T12:23:35.419Z,430
2018-03-27T12:24:43.457Z,350
2018-03-27T12:25:51.560Z,280
2018-03-27T12:26:59.611Z,270
2018-03-27T12:28:07.731Z,270
2018-03-27T12:29:15.792Z,260
2018-03-27T12:30:23.874Z,275
2018-03-27T12:31:31.917Z,295
2018-03-27T12:32:39.966Z,325
2018-03-27T12:33:48.045Z,390
2018-03-27T12:34:56.064Z,490
2018-03-27T12:36:04.134Z,550
2018-03-27T12:37:12.207Z,545
2018-03-27T12:38:20.337Z,545
2018-03-27T12:39:28.375Z,480
2018-03-27T12:40:36.463Z,470
2018-03-27T12:41:44.509Z,495
2018-03-27T12:42:52.585Z,545
2018-03-27T12:44:00.603Z,510
2018-03-27T12:45:08.671Z,425
2018-03-27T12:46:16.760Z,360
2018-03-27T12:47:24.855Z,325
2018-03-27T12:48:32.863Z,295
2018-03-27T12:49:40.972Z,255
2018-03-27T12:50:49.002Z,245
2018-03-27T12:51:57.092Z,245
2018-03-27T12:53:05.117Z,240
2018-03-27T12:54:13.192Z,240
2018-03-27T12:55:21.318Z,235
2018-03-27T12:56:29.390Z,230
2018-03-27T12:57:37.425Z,235
2018-03-27T12:58:45.532Z,235
2018-03-27T12:59:53.562Z,245
2018-03-27T13:01:01.683Z,250
2018-03-27T13:02:09.715Z,240
2018-03-27T13:03:17.761Z,235
2018-03-27T13:04:25.828Z,235
2018-03-27T13:05:34.016Z,235
2018-03-27T13:06:41.950Z,245
2018-03-27T13:07:50.046Z,240
2018-03-27T13:08:58.087Z,240
2018-03-27T13:10:06.112Z,280
2018-03-27T13:11:14.216Z,325
2018-03-27T13:12:22.298Z,375
2018-03-27T13:13:30.381Z,410
2018-03-27T13:14:38.448Z,410
2018-03-27T13:15:46.446Z,360
2018-03-27T13:16:54.576Z,290
2018-03-27T13:18:02.570Z,245
2018-03-27T13:19:10.631Z,210
2018-03-27T13:20:18.792Z,185
2018-03-27T13:21:26.811Z,190
2018-03-27T13:22:34.831Z,200
2018-03-27T13:23:42.944Z,225
2018-03-27T13:24:51.018Z,270
2018-03-27T13:25:59.049Z,320
2018-03-27T13:27:07.098Z,345
2018-03-27T13:28:15.196Z,385
2018-03-27T13:29:23.383Z,435
2018-03-27T13:30:31.310Z,450
2018-03-27T13:31:39.423Z,475
2018-03-27T13:32:47.521Z,465
2018-03-27T13:33:55.514Z,485
2018-03-27T13:35:03.612Z,510
2018-03-27T13:36:11.627Z,510
2018-03-27T13:37:19.712Z,520
2018-03-27T13:38:27.777Z,560
2018-03-27T13:39:35.834Z,555
2018-03-27T13:40:43.954Z,510
2018-03-27T13:41:51.954Z,475
2018-03-27T13:43:00.080Z,460
2018-03-27T13:44:08.094Z,460
2018-03-27T13:45:16.146Z,445
2018-03-27T13:46:24.272Z,440
2018-03-27T13:47:32.277Z,455
2018-03-27T13:48:40.389Z,450
2018-03-27T13:49:48.397Z,425
2018-03-27T13:50:56.520Z,420
2018-03-27T13:52:04.674Z,410
2018-03-27T13:53:12.657Z,395
2018-03-27T13:54:20.688Z,425
2018-03-27T13:55:28.829Z,440
2018-03-27T13:56:36.847Z,420
2018-03-27T13:57:44.923Z,450
2018-03-27T13:58:52.972Z,490
2018-03-27T14:00:01.075Z,435
2018-03-27T14:01:09.085Z,365
2018-03-27T14:02:17.188Z,320
2018-03-27T14:03:25.304Z,290
2018-03-27T14:04:33.328Z,275
2018-03-27T14:05:41.433Z,250
2018-03-27T14:06:49.445Z,250
2018-03-27T14:07:57.573Z,260
2018-03-27T14:09:05.560Z,260
2018-03-27T14:10:13.631Z,250
2018-03-27T14:11:21.744Z,245
2018-03-27T14:12:29.758Z,245
2018-03-27T14:13:37.818Z,245
2018-03-27T14:14:45.930Z,250
2018-03-27T14:15:53.969Z,245
2018-03-27T14:17:02.045Z,235
2018-03-27T14:18:10.090Z,225
2018-03-27T14:19:18.143Z,220
2018-03-27T14:20:26.274Z,215
2018-03-27T14:21:34.282Z,210
2018-03-27T14:22:42.347Z,205
2018-03-27T14:23:50.459Z,200
2018-03-27T14:24:58.479Z,190
2018-03-27T14:26:06.600Z,185
2018-03-27T14:27:14.652Z,180
2018-03-27T14:28:22.691Z,170
2018-03-27T14:29:30.802Z,170
2018-03-27T14:30:38.967Z,175
2018-03-27T14:31:46.885Z,180
2018-03-27T14:32:54.936Z,180
2018-03-27T14:34:03.036Z,175
2018-03-27T14:35:11.112Z,175
2018-03-27T14:36:20.687Z,170
2018-03-27T14:37:27.288Z,170
2018-03-27T14:38:35.367Z,180
2018-03-27T14:39:43.329Z,195
2018-03-27T14:40:51.490Z,215
2018-03-27T14:41:59.497Z,215
2018-03-27T14:43:07.604Z,210
2018-03-27T14:44:15.640Z,230
2018-03-27T14:45:23.689Z,250
2018-03-27T14:46:31.776Z,265
2018-03-27T14:47:39.803Z,270
2018-03-27T14:48:47.920Z,250
2018-03-27T14:49:55.929Z,240
2018-03-27T14:51:04.064Z,230
2018-03-27T14:52:12.052Z,235
2018-03-27T14:53:20.124Z,240
2018-03-27T14:54:28.249Z,260
2018-03-27T14:55:36.429Z,270
2018-03-27T14:56:44.317Z,270
2018-03-27T14:57:52.454Z,270
2018-03-27T14:59:00.496Z,255
2018-03-27T15:00:08.539Z,240
2018-03-27T15:01:20.752Z,235
2018-03-27T15:02:24.626Z,225
2018-03-27T15:03:32.738Z,230
2018-03-27T15:04:40.946Z,250
2018-03-27T15:05:48.824Z,270
2018-03-27T15:06:56.894Z,285
2018-03-27T15:08:05.034Z,295
2018-03-27T15:09:16.067Z,290
2018-03-27T15:10:24.104Z,275
2018-03-27T15:11:32.217Z,265
2018-03-27T15:12:40.330Z,265
2018-03-27T15:13:48.292Z,270
2018-03-27T15:14:56.354Z,270
2018-03-27T15:16:04.512Z,265
2018-03-27T15:17:12.513Z,255
2018-03-27T15:18:20.548Z,245
2018-03-27T15:19:28.693Z,255
2018-03-27T15:20:36.680Z,270
2018-03-27T15:21:44.873Z,275
2018-03-27T15:22:52.839Z,275
2018-03-27T15:24:00.869Z,265
2018-03-27T15:25:08.986Z,260
2018-03-27T15:26:17.037Z,250
2018-03-27T15:27:25.072Z,230
2018-03-27T15:28:33.202Z,205
2018-03-27T15:29:41.220Z,170
2018-03-27T15:30:49.264Z,140
2018-03-27T15:31:57.382Z,130
2018-03-27T15:33:05.420Z,140
2018-03-27T15:34:13.528Z,150
2018-03-27T15:35:21.636Z,150
2018-03-27T15:36:29.634Z,145
2018-03-27T15:37:37.716Z,140
2018-03-27T15:38:45.741Z,135
2018-03-27T15:39:53.789Z,140
2018-03-27T15:41:01.918Z,140
2018-03-27T15:42:09.934Z,140
2018-03-27T15:43:18.025Z,135
2018-03-27T15:44:26.041Z,135
2018-03-27T15:45:34.131Z,135
2018-03-27T15:46:42.196Z,135
2018-03-27T15:47:50.232Z,135
2018-03-27T15:48:58.354Z,135
2018-03-27T15:50:06.409Z,130
2018-03-27T15:51:14.432Z,125
2018-03-27T15:52:22.601Z,125
2018-03-27T15:53:30.617Z,125
2018-03-27T15:54:38.784Z,125
2018-03-27T15:55:46.716Z,130
2018-03-27T15:56:54.803Z,135
2018-03-27T15:58:02.835Z,135
2018-03-27T15:59:10.945Z,135
2018-03-27T16:00:19.032Z,130
2018-03-27T16:01:27.022Z,120
2018-03-27T16:02:35.135Z,115
2018-03-27T16:03:43.141Z,115
2018-03-27T16:04:51.216Z,115
2018-03-27T16:05:59.382Z,115
2018-03-27T16:07:07.402Z,110
2018-03-27T16:08:15.426Z,105
2018-03-27T16:09:23.467Z,100
2018-03-27T16:10:31.639Z,95
2018-03-27T16:11:39.605Z,90
2018-03-27T16:12:50.223Z,90
2018-03-27T16:13:55.746Z,90
2018-03-27T16:15:03.775Z,90
2018-03-27T16:16:11.948Z,90
2018-03-27T16:17:19.952Z,90
2018-03-27T16:18:28.025Z,90
2018-03-27T16:19:36.070Z,100
2018-03-27T16:20:44.107Z,105
2018-03-27T16:21:52.254Z,115
2018-03-27T16:23:00.313Z,125
2018-03-27T16:24:08.302Z,135
2018-03-27T16:25:16.402Z,145
2018-03-27T16:26:24.494Z,145
2018-03-27T16:27:32.496Z,145
2018-03-27T16:28:40.634Z,150
2018-03-27T16:29:48.619Z,150
2018-03-27T16:30:56.684Z,145
2018-03-27T16:32:04.783Z,135
2018-03-27T16:33:12.796Z,135
2018-03-27T16:34:20.969Z,135
2018-03-27T16:35:28.980Z,140
2018-03-27T16:36:37.073Z,140
2018-03-27T16:37:45.061Z,130
2018-03-27T16:38:53.224Z,125
2018-03-27T16:40:01.220Z,110
2018-03-27T16:41:09.331Z,95
2018-03-27T16:42:17.321Z,80
2018-03-27T16:43:25.438Z,75
2018-03-27T16:44:33.444Z,75
2018-03-27T16:45:41.581Z,75
2018-03-27T16:46:49.657Z,80
2018-03-27T16:47:57.678Z,75
2018-03-27T16:49:05.758Z,70
2018-03-27T16:50:13.762Z,70
2018-03-27T16:51:21.833Z,65
2018-03-27T16:52:29.931Z,65
2018-03-27T16:53:37.940Z,65
2018-03-27T16:54:46.111Z,65
2018-03-27T16:55:54.080Z,55
2018-03-27T16:57:02.219Z,50
2018-03-27T16:58:10.285Z,45
2018-03-27T16:59:18.280Z,40
2018-03-27T17:00:26.352Z,35
2018-03-27T17:01:34.468Z,35
2018-03-27T17:02:42.504Z,40
2018-03-27T17:03:50.539Z,45
2018-03-27T17:04:58.675Z,45
2018-03-27T17:06:06.676Z,45
2018-03-27T17:07:14.769Z,45
2018-03-27T17:08:22.844Z,40
2018-03-27T17:09:30.836Z,40
2018-03-27T17:10:38.899Z,40
2018-03-27T17:11:46.984Z,40
2018-03-27T17:12:55.080Z,40
2018-03-27T17:14:03.117Z,40
2018-03-27T17:15:11.154Z,35
2018-03-27T17:16:19.217Z,30
2018-03-27T17:17:27.372Z,25
2018-03-27T17:18:35.388Z,20
2018-03-27T17:19:43.412Z,20
2018-03-27T17:20:51.506Z,20
2018-03-27T17:21:59.575Z,15
2018-03-27T17:23:07.674Z,15
2018-03-27T17:24:15.657Z,15
2018-03-27T17:25:23.767Z,15
2018-03-27T17:26:31.857Z,15
2018-03-27T17:27:39.856Z,15
2018-03-27T17:28:47.985Z,15
2018-03-27T17:29:56.019Z,15
2018-03-27T17:31:04.127Z,10
2018-03-27T17:32:12.138Z,10
2018-03-27T17:33:20.191Z,10
2018-03-27T17:34:28.239Z,5
2018-03-27T17:35:36.357Z,5
2018-03-27T17:36:44.383Z,5
2018-03-27T17:37:52.526Z,5
2018-03-27T17:39:00.479Z,5
2018-03-27T17:40:08.604Z,5
2018-03-27T17:41:16.685Z,5
2018-03-27T17:42:24.668Z,0
2018-03-27T17:43:32.779Z,0
2018-03-27T17:44:40.823Z,0
2018-03-27T17:45:48.907Z,0
2018-03-27T17:46:57.001Z,0
2018-03-27T17:48:04.995Z,0
2018-03-27T17:49:13.062Z,0
2018-03-27T17:50:21.215Z,0
2018-03-27T17:51:29.160Z,0
2018-03-27T17:52:37.317Z,0
2018-03-27T17:53:45.342Z,0
2018-03-27T17:54:53.408Z,0
2018-03-27T17:56:01.474Z,0
2018-03-27T17:57:09.509Z,0
2018-03-27T17:58:17.559Z,0
2018-03-27T17:59:25.637Z,0
2018-03-27T18:00:33.752Z,0
2018-03-27T18:01:41.724Z,0
2018-03-27T18:02:49.795Z,0
2018-03-27T18:03:57.909Z,0
2018-03-27T18:05:05.920Z,0
2018-03-27T18:06:14.012Z,0
2018-03-27T18:07:22.070Z,0
2018-03-27T18:08:30.093Z,0
2018-03-27T18:09:38.204Z,0
2018-03-27T18:10:46.248Z,0
2018-03-27T18:11:54.277Z,0
2018-03-27T18:13:02.344Z,0
2018-03-27T18:14:10.457Z,0
2018-03-27T18:15:18.465Z,0
2018-03-27T18:16:26.544Z,0
2018-03-27T18:17:34.699Z,0
2018-03-27T18:18:42.678Z,0
2018-03-27T18:19:50.711Z,0
2018-03-27T18:20:58.774Z,0
2018-03-27T18:22:06.870Z,0
2018-03-27T18:23:14.899Z,0
2018-03-27T18:24:23.023Z,0
2018-03-27T18:25:31.052Z,0
2018-03-27T18:26:39.085Z,0
2018-03-27T18:27:47.244Z,0
2018-03-27T18:28:55.190Z,0
2018-03-27T18:30:03.344Z,0
2018-03-27T18:31:12.919Z,0
2018-03-27T18:32:19.419Z,0
2018-03-27T18:33:27.572Z,0
2018-03-27T18:34:35.619Z,0
2018-03-27T18:35:43.559Z,0
2018-03-27T18:36:51.632Z,0
2018-03-27T18:37:59.690Z,0
2018-03-27T18:39:07.801Z,0
2018-03-27T18:40:15.818Z,0
2018-03-27T18:41:23.858Z,0
2018-03-27T18:42:31.912Z,0
2018-03-27T18:43:40.041Z,0
2018-03-27T18:44:48.048Z,0
2018-03-27T18:45:56.201Z,0
2018-03-27T18:47:04.157Z,0
2018-03-27T18:48:12.294Z,0
2018-03-27T18:49:20.337Z,0
2018-03-27T18:50:28.364Z,0
2018-03-27T18:51:36.427Z,0
2018-03-27T18:52:44.517Z,0
2018-03-27T18:53:52.535Z,0
2018-03-27T18:55:00.686Z,0
2018-03-27T18:56:08.641Z,0
2018-03-27T18:57:16.859Z,0
2018-03-27T18:58:24.772Z,0
2018-03-27T18:59:32.912Z,0
2018-03-27T19:00:40.913Z,0
2018-03-27T19:01:49.039Z,0
2018-03-27T19:02:57.024Z,0
2018-03-27T19:04:05.077Z,0
2018-03-27T19:05:14.673Z,0
2018-03-27T19:06:23.073Z,0
2018-03-27T19:07:31.079Z,0
2018-03-27T19:08:39.139Z,0
2018-03-27T19:09:47.309Z,0
2018-03-27T19:10:55.271Z,0
2018-03-27T19:12:03.316Z,0
2018-03-27T19:13:11.462Z,0
2018-03-27T19:14:19.431Z,0
2018-03-27T19:15:27.525Z,0
2018-03-27T19:16:35.615Z,0
2018-03-27T19:17:43.619Z,0
2018-03-27T19:18:51.770Z,0
2018-03-27T19:19:59.800Z,0
2018-03-27T19:21:07.872Z,0
2018-03-27T19:22:15.864Z,0
2018-03-27T19:23:23.971Z,0
2018-03-27T19:24:32.041Z,0
2018-03-27T19:25:40.094Z,0
2018-03-27T19:26:48.112Z,0
2018-03-27T19:27:56.228Z,0
2018-03-27T19:29:04.284Z,0
2018-03-27T19:30:12.281Z,0
2018-03-27T19:31:20.390Z,0
2018-03-27T19:32:28.447Z,0
2018-03-27T19:33:36.522Z,0
2018-03-27T19:34:44.557Z,0
2018-03-27T19:35:52.592Z,0
2018-03-27T19:37:00.748Z,0
2018-03-27T19:38:08.813Z,0
2018-03-27T19:39:16.841Z,0
2018-03-27T19:40:24.838Z,0
2018-03-27T19:41:32.970Z,0
2018-03-27T19:42:40.987Z,0
2018-03-27T19:43:49.138Z,0
2018-03-27T19:44:57.071Z,0
2018-03-27T19:46:05.203Z,0
2018-03-27T19:47:13.219Z,0
2018-03-27T19:48:21.263Z,0
2018-03-27T19:49:29.362Z,0
2018-03-27T19:50:37.375Z,0
2018-03-27T19:51:45.463Z,0
2018-03-27T19:52:53.549Z,0
2018-03-27T19:54:01.558Z,0
2018-03-27T19:55:09.685Z,0
2018-03-27T19:56:17.698Z,0
2018-03-27T19:57:25.807Z,0
2018-03-27T19:58:33.820Z,0
2018-03-27T19:59:41.913Z,0
2018-03-27T20:00:49.934Z,0
2018-03-27T20:01:58.014Z,0
2018-03-27T20:03:06.036Z,0
2018-03-27T20:04:14.159Z,0
2018-03-27T20:05:22.213Z,0
2018-03-27T20:06:30.258Z,0
2018-03-27T20:07:38.293Z,0
2018-03-27T20:08:46.391Z,0
2018-03-27T20:09:54.434Z,0
2018-03-27T20:11:02.530Z,0
2018-03-27T20:12:10.520Z,0
2018-03-27T20:13:18.665Z,0
2018-03-27T20:14:26.658Z,0
2018-03-27T20:15:41.706Z,0
2018-03-27T20:16:42.772Z,0
2018-03-27T20:17:50.873Z,0
2018-03-27T20:18:58.985Z,0
2018-03-27T20:20:06.960Z,0
2018-03-27T20:21:15.145Z,0
2018-03-27T20:22:23.062Z,0
2018-03-27T20:23:31.175Z,0
2018-03-27T20:24:39.192Z,0
2018-03-27T20:25:47.332Z,0
2018-03-27T20:26:55.317Z,0
2018-03-27T20:28:03.440Z,0
2018-03-27T20:29:11.489Z,0
2018-03-27T20:30:20.074Z,0
2018-03-27T20:31:27.560Z,0
2018-03-27T20:32:35.725Z,0
2018-03-27T20:33:43.670Z,0
2018-03-27T20:34:51.801Z,0
2018-03-27T20:35:59.850Z,0
2018-03-27T20:37:07.898Z,0
2018-03-27T20:38:15.912Z,0
2018-03-27T20:39:23.969Z,0
2018-03-27T20:40:32.089Z,0
2018-03-27T20:41:40.198Z,0
2018-03-27T20:42:48.143Z,0
2018-03-27T20:43:56.651Z,0
2018-03-27T20:45:04.262Z,0
2018-03-27T20:46:12.416Z,0
2018-03-27T20:47:20.384Z,0
2018-03-27T20:48:28.442Z,0
2018-03-27T20:49:36.882Z,0
2018-03-27T20:50:44.583Z,0
2018-03-27T20:51:52.693Z,0
2018-03-27T20:53:00.712Z,0
2018-03-27T20:54:09.130Z,0
2018-03-27T20:55:16.814Z,0
2018-03-27T20:56:25.395Z,0
2018-03-27T20:57:33.243Z,0
2018-03-27T20:58:41.293Z,0
2018-03-27T20:59:49.090Z,0
2018-03-27T21:00:57.414Z,0
2018-03-27T21:02:05.228Z,0
2018-03-27T21:03:13.529Z,0
2018-03-27T21:04:21.307Z,0
2018-03-27T21:05:29.410Z,0
2018-03-27T21:06:37.736Z,0
2018-03-27T21:07:45.555Z,0
2018-03-27T21:08:53.566Z,0
2018-03-27T21:10:01.582Z,0
2018-03-27T21:11:09.777Z,0
2018-03-27T21:12:17.801Z,0
2018-03-27T21:13:26.136Z,0
2018-03-27T21:14:33.829Z,0
2018-03-27T21:15:41.922Z,0
2018-03-27T21:16:49.942Z,0
2018-03-27T21:17:58.051Z,0
2018-03-27T21:19:09.612Z,0
2018-03-27T21:20:14.128Z,0
2018-03-27T21:21:22.230Z,0
2018-03-27T21:22:30.290Z,0
2018-03-27T21:23:38.296Z,0
2018-03-27T21:24:46.459Z,0
2018-03-27T21:25:54.465Z,0
2018-03-27T21:27:02.496Z,0
2018-03-27T21:28:10.621Z,0
2018-03-27T21:29:18.669Z,0
2018-03-27T21:30:26.666Z,0
2018-03-27T21:31:34.731Z,0
2018-03-27T21:32:42.853Z,0
2018-03-27T21:33:50.874Z,0
2018-03-27T21:34:58.992Z,0
2018-03-27T21:36:07.061Z,0
2018-03-27T21:37:15.061Z,0
2018-03-27T21:38:23.106Z,0
2018-03-27T21:39:31.202Z,0
2018-03-27T21:40:39.278Z,0
2018-03-27T21:41:47.389Z,0
2018-03-27T21:42:55.378Z,0
2018-03-27T21:44:03.381Z,0
2018-03-27T21:45:11.451Z,0
2018-03-27T21:46:19.565Z,0
2018-03-27T21:47:27.591Z,0
2018-03-27T21:48:35.627Z,0
2018-03-27T21:49:43.810Z,0
2018-03-27T21:50:51.770Z,0
2018-03-27T21:51:59.870Z,0
2018-03-27T21:53:07.860Z,0
2018-03-27T21:54:15.955Z,0
2018-03-27T21:55:24.042Z,0
2018-03-27T21:56:32.066Z,0
2018-03-27T21:57:40.097Z,0
2018-03-27T21:58:48.297Z,0
2018-03-27T21:59:56.278Z,0
2018-03-27T22:01:04.322Z,0
2018-03-27T22:02:12.356Z,0
2018-03-27T22:03:20.425Z,0
2018-03-27T22:04:28.523Z,0
2018-03-27T22:05:38.067Z,0
2018-03-27T22:06:44.579Z,0
2018-03-27T22:07:52.664Z,0
2018-03-27T22:09:00.737Z,0
2018-03-27T22:10:08.856Z,0
2018-03-27T22:11:16.828Z,0
2018-03-27T22:12:25.002Z,0
2018-03-27T22:13:32.956Z,0
2018-03-27T22:14:41.002Z,0
2018-03-27T22:15:49.141Z,0
2018-03-27T22:16:57.139Z,0
2018-03-27T22:18:05.233Z,0
2018-03-27T22:19:13.287Z,0
2018-03-27T22:20:21.295Z,0
2018-03-27T22:21:29.383Z,0
2018-03-27T22:22:37.416Z,0
2018-03-27T22:23:45.572Z,0
2018-03-27T22:24:53.586Z,0
2018-03-27T22:26:01.701Z,0
2018-03-27T22:27:09.701Z,0
2018-03-27T22:28:17.727Z,0
2018-03-27T22:29:25.879Z,0
2018-03-27T22:30:33.858Z,0
2018-03-27T22:31:41.941Z,0
2018-03-27T22:32:50.025Z,0
2018-03-27T22:33:58.028Z,0
2018-03-27T22:35:06.145Z,0
2018-03-27T22:36:14.149Z,0
2018-03-27T22:37:22.288Z,0
2018-03-27T22:38:30.347Z,0
2018-03-27T22:39:38.331Z,0
2018-03-27T22:40:46.431Z,0
2018-03-27T22:41:54.472Z,0
2018-03-27T22:43:02.500Z,0
2018-03-27T22:44:16.589Z,0
2018-03-27T22:45:18.706Z,0
2018-03-27T22:46:26.688Z,0
2018-03-27T22:47:34.830Z,0
2018-03-27T22:48:42.843Z,0
2018-03-27T22:49:50.873Z,0
2018-03-27T22:50:58.990Z,0
2018-03-27T22:52:06.992Z,0
2018-03-27T22:53:15.093Z,0
2018-03-27T22:54:23.185Z,0
2018-03-27T22:55:31.158Z,0
2018-03-27T22:56:39.290Z,0
2018-03-27T22:57:47.294Z,0
2018-03-27T22:58:55.342Z,0
2018-03-27T23:00:03.462Z,0
2018-03-27T23:01:11.466Z,0
2018-03-27T23:02:19.534Z,0
2018-03-27T23:03:27.627Z,0
2018-03-27T23:04:35.651Z,0
2018-03-27T23:05:43.730Z,0
2018-03-27T23:06:51.769Z,0
2018-03-27T23:07:59.873Z,0
2018-03-27T23:09:07.954Z,0
2018-03-27T23:10:16.010Z,0
2018-03-27T23:11:24.004Z,0
2018-03-27T23:12:32.151Z,0
2018-03-27T23:13:40.170Z,0
2018-03-27T23:14:48.183Z,0
2018-03-27T23:15:56.356Z,0
2018-03-27T23:17:04.307Z,0
2018-03-27T23:18:12.534Z,0
2018-03-27T23:19:20.480Z,0
2018-03-27T23:20:28.535Z,0
2018-03-27T23:21:36.623Z,0
2018-03-27T23:22:44.612Z,0
2018-03-27T23:23:52.679Z,0
2018-03-27T23:25:00.732Z,0
2018-03-27T23:26:08.860Z,0
2018-03-27T23:27:16.914Z,0
2018-03-27T23:28:24.955Z,0
2018-03-27T23:29:32.973Z,0
2018-03-27T23:30:41.127Z,0
2018-03-27T23:31:49.128Z,0
2018-03-27T23:32:57.153Z,0
2018-03-27T23:34:05.308Z,0
2018-03-27T23:35:13.290Z,0
2018-03-27T23:36:21.386Z,0
2018-03-27T23:37:29.398Z,0
2018-03-27T23:38:37.509Z,0
2018-03-27T23:39:45.516Z,0
2018-03-27T23:40:53.612Z,0
2018-03-27T23:42:01.693Z,0
2018-03-27T23:43:09.699Z,0
2018-03-27T23:44:17.843Z,0
2018-03-27T23:45:25.894Z,0
2018-03-27T23:46:33.941Z,0
2018-03-27T23:47:41.942Z,0
2018-03-27T23:48:50.022Z,0
2018-03-27T23:49:58.158Z,0
2018-03-27T23:51:06.214Z,0
2018-03-27T23:52:14.278Z,0
2018-03-27T23:53:22.253Z,0
2018-03-27T23:54:30.293Z,0
2018-03-27T23:55:38.468Z,0
2018-03-27T23:56:46.422Z,0
2018-03-27T23:57:54.560Z,0
2018-03-27T23:59:02.575Z,0
